createdAt,value
2023-04-22T00:00:40.884Z,21.77
2023-04-22T00:01:40.930Z,21.77
2023-04-22T00:02:41.175Z,21.78
2023-04-22T00:03:41.322Z,21.78
2023-04-22T00:04:41.328Z,21.78
2023-04-22T00:05:41.190Z,21.78
2023-04-22T00:06:41.195Z,21.78
2023-04-22T00:07:41.234Z,21.78
2023-04-22T00:08:41.290Z,21.77
2023-04-22T00:09:41.393Z,21.77
2023-04-22T00:10:41.437Z,21.77
2023-04-22T00:11:41.465Z,21.77
2023-04-22T00:12:41.538Z,21.77
2023-04-22T00:13:41.566Z,21.77
2023-04-22T00:14:41.635Z,21.77
2023-04-22T00:15:41.755Z,21.77
2023-04-22T00:16:41.808Z,21.76
2023-04-22T00:17:41.870Z,21.75
2023-04-22T00:18:41.877Z,21.75
2023-04-22T00:19:41.929Z,21.76
2023-04-22T00:20:41.996Z,21.76
2023-04-22T00:21:42.078Z,21.76
2023-04-22T00:22:42.111Z,21.76
2023-04-22T00:23:42.198Z,21.76
2023-04-22T00:24:42.233Z,21.76
2023-04-22T00:25:42.298Z,21.76
2023-04-22T00:26:42.313Z,21.75
2023-04-22T00:27:42.383Z,21.76
2023-04-22T00:28:42.450Z,21.76
2023-04-22T00:29:42.492Z,21.75
2023-04-22T00:30:43.372Z,21.74
2023-04-22T00:31:42.644Z,21.74
2023-04-22T00:32:42.790Z,21.75
2023-04-22T00:33:42.741Z,21.75
2023-04-22T00:34:42.804Z,21.75
2023-04-22T00:35:43.374Z,21.74
2023-04-22T00:36:42.969Z,21.75
2023-04-22T00:37:42.983Z,21.75
2023-04-22T00:38:43.037Z,21.74
2023-04-22T00:39:43.328Z,21.74
2023-04-22T00:40:43.180Z,21.74
2023-04-22T00:41:43.183Z,21.74
2023-04-22T00:42:43.273Z,21.74
2023-04-22T00:43:43.339Z,21.74
2023-04-22T00:44:43.412Z,21.74
2023-04-22T00:45:43.426Z,21.75
2023-04-22T00:46:43.591Z,21.74
2023-04-22T00:47:43.609Z,21.74
2023-04-22T00:48:43.625Z,21.74
2023-04-22T00:49:43.638Z,21.73
2023-04-22T00:50:43.722Z,21.73
2023-04-22T00:51:43.767Z,21.73
2023-04-22T00:52:43.836Z,21.72
2023-04-22T00:53:43.910Z,21.73
2023-04-22T00:54:43.952Z,21.72
2023-04-22T00:55:44.050Z,21.72
2023-04-22T00:56:44.089Z,21.72
2023-04-22T00:57:44.155Z,21.73
2023-04-22T00:58:44.214Z,21.73
2023-04-22T00:59:44.272Z,21.73
2023-04-22T01:00:44.440Z,21.72
2023-04-22T01:01:44.390Z,21.71
2023-04-22T01:02:44.560Z,21.71
2023-04-22T01:03:44.667Z,21.72
2023-04-22T01:04:44.579Z,21.72
2023-04-22T01:05:44.668Z,21.72
2023-04-22T01:06:44.690Z,21.72
2023-04-22T01:07:44.750Z,21.72
2023-04-22T01:08:44.806Z,21.72
2023-04-22T01:09:44.885Z,21.71
2023-04-22T01:10:44.976Z,21.71
2023-04-22T01:11:45.009Z,21.72
2023-04-22T01:12:45.104Z,21.71
2023-04-22T01:13:45.170Z,21.72
2023-04-22T01:14:45.209Z,21.71
2023-04-22T01:15:45.274Z,21.71
2023-04-22T01:16:45.480Z,21.71
2023-04-22T01:17:45.421Z,21.71
2023-04-22T01:18:45.413Z,21.71
2023-04-22T01:19:45.477Z,21.71
2023-04-22T01:20:45.563Z,21.70
2023-04-22T01:21:45.593Z,21.70
2023-04-22T01:22:45.673Z,21.70
2023-04-22T01:23:45.708Z,21.70
2023-04-22T01:24:45.806Z,21.70
2023-04-22T01:25:45.846Z,21.70
2023-04-22T01:26:45.876Z,21.70
2023-04-22T01:27:45.941Z,21.70
2023-04-22T01:28:46.038Z,21.70
2023-04-22T01:29:46.090Z,21.69
2023-04-22T01:30:46.148Z,21.69
2023-04-22T01:31:46.236Z,21.69
2023-04-22T01:32:46.357Z,21.69
2023-04-22T01:33:46.318Z,21.69
2023-04-22T01:34:46.368Z,21.68
2023-04-22T01:35:46.917Z,21.68
2023-04-22T01:36:46.481Z,21.69
2023-04-22T01:37:46.568Z,21.68
2023-04-22T01:38:46.585Z,21.68
2023-04-22T01:39:46.674Z,21.68
2023-04-22T01:40:46.729Z,21.69
2023-04-22T01:41:46.774Z,21.68
2023-04-22T01:42:46.846Z,21.68
2023-04-22T01:43:46.917Z,21.68
2023-04-22T01:44:46.966Z,21.68
2023-04-22T01:45:47.088Z,21.68
2023-04-22T01:46:47.121Z,21.68
2023-04-22T01:47:47.213Z,21.68
2023-04-22T01:48:47.303Z,21.68
2023-04-22T01:49:47.335Z,21.68
2023-04-22T01:50:47.375Z,21.68
2023-04-22T01:51:47.413Z,21.66
2023-04-22T01:52:47.488Z,21.67
2023-04-22T01:53:47.564Z,21.67
2023-04-22T01:54:47.595Z,21.67
2023-04-22T01:55:47.710Z,21.67
2023-04-22T01:56:47.835Z,21.66
2023-04-22T01:57:47.799Z,21.66
2023-04-22T01:58:47.842Z,21.66
2023-04-22T01:59:47.926Z,21.66
2023-04-22T02:00:47.978Z,21.66
2023-04-22T02:01:48.112Z,21.67
2023-04-22T02:02:48.233Z,21.67
2023-04-22T02:03:48.214Z,21.66
2023-04-22T02:04:48.206Z,21.66
2023-04-22T02:05:48.250Z,21.66
2023-04-22T02:06:48.335Z,21.66
2023-04-22T02:07:48.392Z,21.66
2023-04-22T02:08:48.487Z,21.65
2023-04-22T02:09:50.808Z,21.65
2023-04-22T02:10:48.545Z,21.65
2023-04-22T02:11:48.605Z,21.65
2023-04-22T02:12:48.716Z,21.66
2023-04-22T02:13:48.725Z,21.65
2023-04-22T02:14:48.789Z,21.65
2023-04-22T02:15:48.936Z,21.65
2023-04-22T02:16:49.021Z,21.65
2023-04-22T02:17:49.015Z,21.65
2023-04-22T02:18:49.028Z,21.64
2023-04-22T02:19:49.160Z,21.64
2023-04-22T02:20:49.229Z,21.64
2023-04-22T02:21:49.221Z,21.63
2023-04-22T02:22:49.242Z,21.64
2023-04-22T02:23:49.284Z,21.64
2023-04-22T02:24:49.341Z,21.64
2023-04-22T02:25:49.518Z,21.64
2023-04-22T02:26:49.462Z,21.63
2023-04-22T02:27:49.476Z,21.63
2023-04-22T02:28:49.563Z,21.63
2023-04-22T02:29:49.593Z,21.64
2023-04-22T02:30:51.430Z,21.63
2023-04-22T02:31:49.700Z,21.64
2023-04-22T02:32:49.812Z,21.64
2023-04-22T02:33:49.788Z,21.64
2023-04-22T02:34:49.825Z,21.64
2023-04-22T02:35:49.939Z,21.63
2023-04-22T02:36:49.910Z,21.63
2023-04-22T02:37:49.973Z,21.63
2023-04-22T02:38:50.036Z,21.63
2023-04-22T02:39:50.069Z,21.62
2023-04-22T02:40:50.959Z,21.63
2023-04-22T02:41:50.127Z,21.62
2023-04-22T02:42:50.212Z,21.62
2023-04-22T02:43:50.221Z,21.62
2023-04-22T02:44:50.264Z,21.62
2023-04-22T02:45:50.334Z,21.62
2023-04-22T02:46:50.404Z,21.62
2023-04-22T02:47:50.462Z,21.62
2023-04-22T02:48:50.454Z,21.62
2023-04-22T02:49:50.516Z,21.61
2023-04-22T02:50:50.550Z,21.61
2023-04-22T02:51:50.601Z,21.62
2023-04-22T02:52:50.620Z,21.62
2023-04-22T02:53:50.633Z,21.62
2023-04-22T02:54:50.648Z,21.62
2023-04-22T02:55:50.713Z,21.61
2023-04-22T02:56:50.731Z,21.61
2023-04-22T02:57:50.762Z,21.61
2023-04-22T02:58:50.776Z,21.60
2023-04-22T02:59:50.800Z,21.60
2023-04-22T03:00:50.855Z,21.61
2023-04-22T03:01:50.912Z,21.60
2023-04-22T03:02:51.006Z,21.60
2023-04-22T03:03:51.142Z,21.60
2023-04-22T03:04:50.988Z,21.61
2023-04-22T03:05:51.077Z,21.60
2023-04-22T03:06:51.085Z,21.60
2023-04-22T03:07:51.153Z,21.60
2023-04-22T03:08:51.182Z,21.60
2023-04-22T03:09:51.235Z,21.60
2023-04-22T03:10:51.322Z,21.60
2023-04-22T03:11:51.377Z,21.59
2023-04-22T03:12:51.396Z,21.60
2023-04-22T03:13:51.469Z,21.60
2023-04-22T03:14:51.479Z,21.59
2023-04-22T03:15:54.933Z,21.59
2023-04-22T03:16:51.590Z,21.59
2023-04-22T03:17:51.653Z,21.59
2023-04-22T03:18:51.508Z,21.60
2023-04-22T03:19:51.506Z,21.59
2023-04-22T03:20:51.486Z,21.59
2023-04-22T03:21:51.513Z,21.59
2023-04-22T03:22:51.489Z,21.59
2023-04-22T03:23:51.495Z,21.59
2023-04-22T03:24:51.463Z,21.59
2023-04-22T03:25:51.468Z,21.58
2023-04-22T03:26:51.515Z,21.58
2023-04-22T03:27:51.458Z,21.58
2023-04-22T03:28:51.442Z,21.58
2023-04-22T03:29:51.455Z,21.58
2023-04-22T03:30:51.961Z,21.59
2023-04-22T03:31:51.502Z,21.58
2023-04-22T03:32:51.502Z,21.58
2023-04-22T03:33:51.427Z,21.58
2023-04-22T03:34:51.442Z,21.58
2023-04-22T03:35:51.418Z,21.58
2023-04-22T03:36:51.434Z,21.59
2023-04-22T03:37:51.402Z,21.58
2023-04-22T03:38:51.432Z,21.57
2023-04-22T03:39:51.383Z,21.58
2023-04-22T03:40:51.717Z,21.59
2023-04-22T03:41:51.944Z,21.58
2023-04-22T03:42:51.392Z,21.58
2023-04-22T03:43:51.356Z,21.58
2023-04-22T03:44:51.376Z,21.57
2023-04-22T03:45:51.393Z,21.57
2023-04-22T03:46:51.361Z,21.57
2023-04-22T03:47:51.374Z,21.57
2023-04-22T03:48:51.341Z,21.57
2023-04-22T03:49:51.336Z,21.57
2023-04-22T03:50:51.351Z,21.57
2023-04-22T03:51:51.313Z,21.56
2023-04-22T03:52:51.324Z,21.56
2023-04-22T03:53:51.299Z,21.56
2023-04-22T03:54:51.297Z,21.56
2023-04-22T03:55:51.331Z,21.56
2023-04-22T03:56:51.299Z,21.56
2023-04-22T03:57:51.285Z,21.56
2023-04-22T03:58:51.278Z,21.56
2023-04-22T03:59:51.301Z,21.56
2023-04-22T04:00:51.268Z,21.55
2023-04-22T04:01:51.274Z,21.55
2023-04-22T04:02:51.475Z,21.55
2023-04-22T04:03:51.520Z,21.55
2023-04-22T04:04:51.820Z,21.54
2023-04-22T04:05:51.611Z,21.55
2023-04-22T04:06:51.487Z,21.55
2023-04-22T04:07:51.452Z,21.55
2023-04-22T04:08:51.469Z,21.55
2023-04-22T04:09:51.485Z,21.55
2023-04-22T04:10:51.487Z,21.55
2023-04-22T04:11:51.521Z,21.55
2023-04-22T04:12:51.595Z,21.55
2023-04-22T04:13:51.598Z,21.55
2023-04-22T04:14:51.628Z,21.55
2023-04-22T04:15:51.677Z,21.55
2023-04-22T04:16:51.664Z,21.55
2023-04-22T04:17:51.738Z,21.54
2023-04-22T04:18:51.635Z,21.54
2023-04-22T04:19:51.674Z,21.54
2023-04-22T04:20:51.658Z,21.55
2023-04-22T04:21:51.657Z,21.54
2023-04-22T04:22:51.646Z,21.54
2023-04-22T04:23:51.649Z,21.54
2023-04-22T04:24:51.649Z,21.54
2023-04-22T04:25:51.657Z,21.54
2023-04-22T04:26:51.641Z,21.53
2023-04-22T04:27:51.635Z,21.54
2023-04-22T04:28:51.636Z,21.54
2023-04-22T04:29:51.638Z,21.54
2023-04-22T04:30:51.706Z,21.54
2023-04-22T04:31:51.854Z,21.54
2023-04-22T04:32:51.690Z,21.54
2023-04-22T04:33:51.676Z,21.53
2023-04-22T04:34:51.629Z,21.54
2023-04-22T04:35:51.632Z,21.54
2023-04-22T04:36:51.621Z,21.54
2023-04-22T04:37:51.663Z,21.54
2023-04-22T04:38:52.486Z,21.55
2023-04-22T04:39:51.624Z,21.54
2023-04-22T04:40:51.626Z,21.54
2023-04-22T04:41:51.615Z,21.54
2023-04-22T04:42:51.597Z,21.55
2023-04-22T04:43:51.584Z,21.55
2023-04-22T04:44:51.576Z,21.55
2023-04-22T04:45:51.579Z,21.55
2023-04-22T04:46:51.626Z,21.55
2023-04-22T04:47:51.591Z,21.55
2023-04-22T04:48:51.543Z,21.55
2023-04-22T04:49:51.563Z,21.55
2023-04-22T04:50:51.581Z,21.55
2023-04-22T04:51:51.554Z,21.55
2023-04-22T04:52:52.754Z,21.55
2023-04-22T04:53:51.541Z,21.55
2023-04-22T04:54:51.524Z,21.55
2023-04-22T04:55:51.510Z,21.56
2023-04-22T04:56:51.489Z,21.55
2023-04-22T04:57:51.495Z,21.56
2023-04-22T04:58:51.487Z,21.55
2023-04-22T04:59:51.484Z,21.56
2023-04-22T05:00:51.476Z,21.56
2023-04-22T05:01:51.491Z,21.56
2023-04-22T05:02:51.542Z,21.56
2023-04-22T05:03:51.562Z,21.56
2023-04-22T05:04:51.518Z,21.57
2023-04-22T05:05:51.438Z,21.56
2023-04-22T05:06:51.427Z,21.57
2023-04-22T05:07:51.438Z,21.57
2023-04-22T05:08:51.429Z,21.58
2023-04-22T05:09:51.414Z,21.58
2023-04-22T05:10:51.430Z,21.58
2023-04-22T05:11:51.416Z,21.58
2023-04-22T05:12:51.420Z,21.59
2023-04-22T05:13:51.388Z,21.59
2023-04-22T05:14:51.388Z,21.60
2023-04-22T05:15:51.388Z,21.60
2023-04-22T05:16:51.446Z,21.60
2023-04-22T05:17:51.459Z,21.61
2023-04-22T05:18:51.376Z,21.61
2023-04-22T05:19:51.351Z,21.61
2023-04-22T05:20:51.368Z,21.62
2023-04-22T05:21:51.331Z,21.61
2023-04-22T05:22:51.329Z,21.61
2023-04-22T05:23:51.352Z,21.61
2023-04-22T05:24:51.405Z,21.62
2023-04-22T05:25:52.834Z,21.62
2023-04-22T05:26:51.305Z,21.62
2023-04-22T05:27:51.292Z,21.62
2023-04-22T05:28:51.278Z,21.62
2023-04-22T05:29:51.279Z,21.62
2023-04-22T05:30:51.346Z,21.63
2023-04-22T05:31:51.373Z,21.63
2023-04-22T05:32:51.468Z,21.63
2023-04-22T05:33:51.422Z,21.64
2023-04-22T05:34:51.429Z,21.64
2023-04-22T05:35:51.487Z,21.64
2023-04-22T05:36:51.524Z,21.64
2023-04-22T05:37:51.585Z,21.65
2023-04-22T05:38:51.639Z,21.65
2023-04-22T05:39:51.762Z,21.65
2023-04-22T05:40:51.767Z,21.64
2023-04-22T05:41:51.804Z,21.63
2023-04-22T05:42:51.873Z,21.64
2023-04-22T05:43:51.946Z,21.64
2023-04-22T05:44:51.977Z,21.64
2023-04-22T05:45:52.036Z,21.64
2023-04-22T05:46:52.092Z,21.64
2023-04-22T05:47:52.226Z,21.64
2023-04-22T05:48:52.216Z,21.64
2023-04-22T05:49:52.257Z,21.64
2023-04-22T05:50:52.329Z,21.64
2023-04-22T05:51:52.364Z,21.64
2023-04-22T05:52:52.434Z,21.64
2023-04-22T05:53:52.470Z,21.64
2023-04-22T05:54:52.546Z,21.64
2023-04-22T05:55:52.609Z,21.65
2023-04-22T05:56:52.649Z,21.64
2023-04-22T05:57:52.708Z,21.63
2023-04-22T05:58:52.763Z,21.63
2023-04-22T05:59:52.817Z,21.63
2023-04-22T06:00:52.887Z,21.63
2023-04-22T06:01:52.926Z,21.63
2023-04-22T06:02:53.101Z,21.63
2023-04-22T06:03:53.193Z,21.63
2023-04-22T06:04:53.437Z,21.64
2023-04-22T06:05:53.339Z,21.63
2023-04-22T06:06:53.229Z,21.63
2023-04-22T06:07:53.280Z,21.63
2023-04-22T06:08:53.346Z,21.63
2023-04-22T06:10:02.187Z,21.64
2023-04-22T06:10:54.404Z,21.63
2023-04-22T06:11:53.388Z,21.63
2023-04-22T06:12:53.387Z,21.63
2023-04-22T06:13:53.390Z,21.63
2023-04-22T06:14:53.354Z,21.64
2023-04-22T06:15:53.451Z,21.64
2023-04-22T06:16:53.405Z,21.64
2023-04-22T06:17:53.413Z,21.64
2023-04-22T06:18:53.355Z,21.65
2023-04-22T06:19:53.329Z,21.65
2023-04-22T06:20:53.351Z,21.65
2023-04-22T06:21:53.404Z,21.64
2023-04-22T06:22:53.410Z,21.65
2023-04-22T06:23:53.471Z,21.66
2023-04-22T06:24:53.507Z,21.66
2023-04-22T06:25:53.586Z,21.67
2023-04-22T06:26:53.621Z,21.67
2023-04-22T06:27:53.678Z,21.68
2023-04-22T06:28:53.750Z,21.69
2023-04-22T06:29:53.784Z,21.68
2023-04-22T06:30:53.922Z,21.69
2023-04-22T06:31:53.926Z,21.69
2023-04-22T06:32:53.997Z,21.69
2023-04-22T06:33:54.028Z,21.69
2023-04-22T06:34:54.060Z,21.69
2023-04-22T06:35:54.539Z,21.70
2023-04-22T06:36:54.209Z,21.69
2023-04-22T06:37:54.244Z,21.70
2023-04-22T06:38:54.305Z,21.70
2023-04-22T06:39:54.354Z,21.70
2023-04-22T06:40:54.426Z,21.70
2023-04-22T06:41:54.479Z,21.70
2023-04-22T06:42:54.562Z,21.70
2023-04-22T06:43:54.616Z,21.70
2023-04-22T06:44:54.670Z,21.69
2023-04-22T06:45:54.728Z,21.69
2023-04-22T06:46:56.495Z,21.69
2023-04-22T06:47:54.822Z,21.69
2023-04-22T06:48:54.780Z,21.70
2023-04-22T06:49:54.767Z,21.69
2023-04-22T06:50:54.772Z,21.68
2023-04-22T06:51:54.753Z,21.68
2023-04-22T06:52:54.748Z,21.70
2023-04-22T06:53:54.730Z,21.69
2023-04-22T06:54:54.766Z,21.70
2023-04-22T06:55:54.772Z,21.71
2023-04-22T06:56:54.733Z,21.71
2023-04-22T06:57:54.752Z,21.71
2023-04-22T06:58:54.729Z,21.71
2023-04-22T06:59:54.716Z,21.72
2023-04-22T07:00:54.710Z,21.72
2023-04-22T07:01:54.734Z,21.71
2023-04-22T07:02:54.737Z,21.71
2023-04-22T07:03:54.700Z,21.72
2023-04-22T07:04:54.671Z,21.73
2023-04-22T07:05:55.023Z,21.73
2023-04-22T07:06:54.655Z,21.74
2023-04-22T07:07:54.635Z,21.74
2023-04-22T07:08:54.631Z,21.74
2023-04-22T07:09:54.675Z,21.74
2023-04-22T07:10:55.055Z,21.73
2023-04-22T07:11:54.687Z,21.74
2023-04-22T07:12:54.620Z,21.73
2023-04-22T07:13:54.602Z,21.73
2023-04-22T07:14:54.604Z,21.73
2023-04-22T07:15:54.647Z,21.75
2023-04-22T07:16:54.617Z,21.75
2023-04-22T07:17:54.636Z,21.75
2023-04-22T07:18:54.560Z,21.75
2023-04-22T07:19:54.549Z,21.76
2023-04-22T07:20:54.584Z,21.75
2023-04-22T07:21:54.587Z,21.75
2023-04-22T07:22:54.653Z,21.75
2023-04-22T07:23:54.687Z,21.76
2023-04-22T07:24:54.763Z,21.75
2023-04-22T07:25:54.854Z,21.75
2023-04-22T07:26:54.900Z,21.74
2023-04-22T07:27:54.945Z,21.74
2023-04-22T07:28:55.044Z,21.74
2023-04-22T07:29:55.089Z,21.73
2023-04-22T07:30:55.157Z,21.73
2023-04-22T07:31:55.252Z,21.73
2023-04-22T07:32:55.288Z,21.73
2023-04-22T07:33:55.331Z,21.73
2023-04-22T07:34:55.373Z,21.72
2023-04-22T07:35:55.457Z,21.72
2023-04-22T07:36:55.492Z,21.72
2023-04-22T07:37:55.557Z,21.71
2023-04-22T07:38:55.646Z,21.70
2023-04-22T07:39:55.635Z,21.70
2023-04-22T07:40:56.038Z,21.69
2023-04-22T07:41:55.784Z,21.69
2023-04-22T07:42:55.830Z,21.70
2023-04-22T07:43:55.896Z,21.71
2023-04-22T07:44:55.969Z,21.72
2023-04-22T07:45:56.088Z,21.72
2023-04-22T07:46:56.055Z,21.73
2023-04-22T07:47:56.163Z,21.73
2023-04-22T07:48:56.273Z,21.73
2023-04-22T07:49:56.259Z,21.75
2023-04-22T07:50:56.341Z,21.75
2023-04-22T07:51:56.373Z,21.76
2023-04-22T07:52:56.432Z,21.76
2023-04-22T07:53:56.529Z,21.76
2023-04-22T07:54:56.559Z,21.76
2023-04-22T07:55:56.651Z,21.77
2023-04-22T07:56:56.754Z,21.77
2023-04-22T07:57:56.777Z,21.77
2023-04-22T07:58:56.840Z,21.77
2023-04-22T07:59:56.890Z,21.78
2023-04-22T08:00:57.006Z,21.78
2023-04-22T08:01:57.049Z,21.78
2023-04-22T08:02:57.300Z,21.79
2023-04-22T08:03:57.373Z,21.80
2023-04-22T08:04:57.247Z,21.81
2023-04-22T08:05:57.383Z,21.82
2023-04-22T08:06:57.323Z,21.82
2023-04-22T08:07:57.387Z,21.82
2023-04-22T08:08:57.443Z,21.82
2023-04-22T08:09:57.510Z,21.83
2023-04-22T08:10:57.586Z,21.83
2023-04-22T08:11:57.627Z,21.83
2023-04-22T08:12:57.721Z,21.84
2023-04-22T08:13:57.752Z,21.84
2023-04-22T08:14:57.814Z,21.84
2023-04-22T08:15:58.677Z,21.85
2023-04-22T08:16:57.948Z,21.85
2023-04-22T08:17:58.075Z,21.85
2023-04-22T08:18:58.084Z,21.86
2023-04-22T08:19:58.150Z,21.87
2023-04-22T08:20:58.588Z,21.87
2023-04-22T08:21:58.259Z,21.88
2023-04-22T08:22:58.313Z,21.88
2023-04-22T08:23:58.396Z,21.90
2023-04-22T08:24:58.397Z,21.90
2023-04-22T08:25:58.470Z,21.90
2023-04-22T08:26:58.536Z,21.91
2023-04-22T08:27:58.586Z,21.93
2023-04-22T08:28:58.630Z,21.93
2023-04-22T08:29:58.686Z,21.94
2023-04-22T08:30:58.827Z,21.94
2023-04-22T08:31:58.781Z,21.95
2023-04-22T08:32:58.867Z,21.95
2023-04-22T08:33:58.888Z,21.95
2023-04-22T08:35:04.318Z,21.95
2023-04-22T08:35:59.951Z,21.96
2023-04-22T08:36:58.927Z,21.97
2023-04-22T08:37:58.973Z,21.97
2023-04-22T08:38:58.913Z,21.98
2023-04-22T08:39:58.944Z,21.98
2023-04-22T08:40:58.902Z,21.98
2023-04-22T08:41:58.894Z,21.99
2023-04-22T08:42:58.942Z,21.99
2023-04-22T08:43:58.886Z,21.99
2023-04-22T08:44:58.953Z,22.00
2023-04-22T08:45:58.970Z,22.00
2023-04-22T08:46:59.971Z,22.00
2023-04-22T08:47:59.104Z,22.01
2023-04-22T08:48:59.148Z,22.02
2023-04-22T08:49:59.179Z,22.03
2023-04-22T08:50:59.270Z,22.03
2023-04-22T08:51:59.288Z,22.04
2023-04-22T08:52:59.345Z,22.04
2023-04-22T08:53:59.396Z,22.06
2023-04-22T08:54:59.467Z,22.06
2023-04-22T08:55:59.591Z,22.07
2023-04-22T08:56:59.656Z,22.07
2023-04-22T08:57:59.634Z,22.07
2023-04-22T08:58:59.697Z,22.08
2023-04-22T08:59:59.746Z,22.09
2023-04-22T09:00:59.836Z,22.10
2023-04-22T09:01:59.922Z,22.11
2023-04-22T09:02:59.963Z,22.11
2023-04-22T09:04:00.099Z,22.12
2023-04-22T09:05:00.030Z,22.12
2023-04-22T09:06:00.128Z,22.13
2023-04-22T09:07:00.107Z,22.14
2023-04-22T09:08:00.166Z,22.14
2023-04-22T09:09:00.189Z,22.16
2023-04-22T09:10:00.250Z,22.16
2023-04-22T09:11:00.325Z,22.17
2023-04-22T09:12:00.345Z,22.17
2023-04-22T09:13:00.374Z,22.18
2023-04-22T09:14:00.435Z,22.19
2023-04-22T09:15:00.478Z,22.19
2023-04-22T09:16:02.182Z,22.20
2023-04-22T09:17:00.639Z,22.21
2023-04-22T09:18:00.612Z,22.22
2023-04-22T09:19:00.683Z,22.23
2023-04-22T09:20:00.699Z,22.24
2023-04-22T09:21:00.752Z,22.24
2023-04-22T09:22:00.774Z,22.26
2023-04-22T09:23:00.809Z,22.26
2023-04-22T09:24:00.842Z,22.26
2023-04-22T09:25:00.889Z,22.26
2023-04-22T09:26:00.941Z,22.27
2023-04-22T09:27:01.041Z,22.29
2023-04-22T09:28:00.983Z,22.30
2023-04-22T09:29:01.013Z,22.30
2023-04-22T09:30:01.077Z,22.31
2023-04-22T09:31:01.114Z,22.32
2023-04-22T09:32:01.183Z,22.33
2023-04-22T09:33:01.201Z,22.33
2023-04-22T09:34:01.236Z,22.35
2023-04-22T09:35:01.214Z,22.35
2023-04-22T09:36:01.261Z,22.35
2023-04-22T09:37:01.267Z,22.35
2023-04-22T09:38:01.295Z,22.37
2023-04-22T09:39:01.313Z,22.37
2023-04-22T09:40:01.349Z,22.38
2023-04-22T09:41:01.349Z,22.38
2023-04-22T09:42:01.362Z,22.39
2023-04-22T09:43:01.400Z,22.40
2023-04-22T09:44:01.463Z,22.40
2023-04-22T09:45:02.259Z,22.41
2023-04-22T09:46:01.487Z,22.41
2023-04-22T09:47:01.559Z,22.42
2023-04-22T09:48:01.544Z,22.43
2023-04-22T09:49:01.516Z,22.43
2023-04-22T09:50:01.648Z,22.44
2023-04-22T09:51:01.636Z,22.44
2023-04-22T09:52:01.557Z,22.46
2023-04-22T09:53:01.574Z,22.45
2023-04-22T09:54:01.627Z,22.46
2023-04-22T09:55:01.613Z,22.47
2023-04-22T09:56:01.640Z,22.47
2023-04-22T09:57:01.646Z,22.48
2023-04-22T09:58:01.669Z,22.48
2023-04-22T09:59:01.669Z,22.49
2023-04-22T10:00:01.654Z,22.51
2023-04-22T10:01:01.777Z,22.51
2023-04-22T10:02:01.687Z,22.51
2023-04-22T10:03:01.822Z,22.52
2023-04-22T10:04:01.778Z,22.52
2023-04-22T10:05:01.691Z,22.54
2023-04-22T10:06:01.721Z,22.54
2023-04-22T10:07:01.724Z,22.55
2023-04-22T10:08:01.787Z,22.55
2023-04-22T10:09:01.768Z,22.55
2023-04-22T10:10:01.741Z,22.55
2023-04-22T10:11:01.751Z,22.56
2023-04-22T10:12:01.774Z,22.56
2023-04-22T10:13:01.770Z,22.58
2023-04-22T10:14:01.757Z,22.59
2023-04-22T10:15:01.776Z,22.59
2023-04-22T10:16:01.790Z,22.60
2023-04-22T10:17:01.800Z,22.61
2023-04-22T10:18:01.796Z,22.61
2023-04-22T10:19:01.809Z,22.62
2023-04-22T10:20:01.770Z,22.63
2023-04-22T10:21:01.894Z,22.63
2023-04-22T10:22:01.745Z,22.64
2023-04-22T10:23:01.753Z,22.65
2023-04-22T10:24:01.747Z,22.66
2023-04-22T10:25:01.743Z,22.66
2023-04-22T10:26:01.771Z,22.67
2023-04-22T10:27:01.744Z,22.67
2023-04-22T10:28:01.748Z,22.68
2023-04-22T10:29:01.726Z,22.69
2023-04-22T10:30:01.733Z,22.70
2023-04-22T10:31:01.714Z,22.70
2023-04-22T10:32:01.714Z,22.71
2023-04-22T10:33:01.771Z,22.71
2023-04-22T10:34:01.725Z,22.72
2023-04-22T10:35:01.737Z,22.74
2023-04-22T10:36:01.741Z,22.73
2023-04-22T10:37:01.761Z,22.74
2023-04-22T10:38:01.772Z,22.74
2023-04-22T10:39:01.796Z,22.74
2023-04-22T10:40:01.817Z,22.75
2023-04-22T10:41:01.851Z,22.75
2023-04-22T10:42:01.907Z,22.75
2023-04-22T10:43:01.928Z,22.75
2023-04-22T10:44:01.958Z,22.74
2023-04-22T10:45:01.957Z,22.75
2023-04-22T10:46:02.064Z,22.76
2023-04-22T10:47:02.076Z,22.76
2023-04-22T10:48:02.128Z,22.76
2023-04-22T10:49:02.100Z,22.77
2023-04-22T10:50:02.170Z,22.78
2023-04-22T10:51:02.178Z,22.79
2023-04-22T10:52:02.249Z,22.79
2023-04-22T10:53:02.268Z,22.79
2023-04-22T10:54:02.436Z,22.80
2023-04-22T10:55:02.358Z,22.80
2023-04-22T10:56:02.433Z,22.81
2023-04-22T10:57:02.494Z,22.81
2023-04-22T10:58:02.574Z,22.81
2023-04-22T10:59:02.615Z,22.81
2023-04-22T11:00:02.664Z,22.83
2023-04-22T11:01:02.722Z,22.84
2023-04-22T11:02:02.849Z,22.85
2023-04-22T11:03:02.951Z,22.85
2023-04-22T11:04:03.025Z,22.86
2023-04-22T11:05:02.970Z,22.86
2023-04-22T11:06:03.045Z,22.87
2023-04-22T11:07:03.095Z,22.88
2023-04-22T11:08:03.176Z,22.88
2023-04-22T11:09:03.232Z,22.88
2023-04-22T11:10:03.298Z,22.88
2023-04-22T11:11:03.423Z,22.88
2023-04-22T11:12:03.450Z,22.90
2023-04-22T11:13:03.520Z,22.90
2023-04-22T11:14:03.581Z,22.90
2023-04-22T11:15:03.607Z,22.90
2023-04-22T11:16:04.653Z,22.90
2023-04-22T11:17:03.740Z,22.90
2023-04-22T11:18:03.822Z,22.91
2023-04-22T11:19:03.915Z,22.91
2023-04-22T11:20:03.941Z,22.92
2023-04-22T11:21:04.015Z,22.92
2023-04-22T11:22:04.091Z,22.92
2023-04-22T11:23:04.151Z,22.92
2023-04-22T11:24:04.178Z,22.92
2023-04-22T11:25:04.259Z,22.93
2023-04-22T11:26:04.373Z,22.93
2023-04-22T11:27:04.359Z,22.93
2023-04-22T11:28:04.429Z,22.94
2023-04-22T11:29:04.503Z,22.94
2023-04-22T11:30:04.638Z,22.94
2023-04-22T11:31:04.669Z,22.95
2023-04-22T11:32:04.778Z,22.95
2023-04-22T11:33:04.861Z,22.96
2023-04-22T11:34:04.812Z,22.96
2023-04-22T11:35:04.843Z,22.96
2023-04-22T11:36:04.987Z,22.95
2023-04-22T11:37:04.957Z,22.96
2023-04-22T11:38:05.029Z,22.96
2023-04-22T11:39:05.086Z,22.96
2023-04-22T11:41:05.166Z,22.95
2023-04-22T11:42:05.154Z,22.95
2023-04-22T11:43:05.135Z,22.96
2023-04-22T11:44:05.123Z,22.95
2023-04-22T11:45:05.131Z,22.96
2023-04-22T11:46:05.254Z,22.96
2023-04-22T11:47:05.109Z,22.96
2023-04-22T11:48:05.093Z,22.96
2023-04-22T11:49:05.102Z,22.96
2023-04-22T11:50:05.084Z,22.97
2023-04-22T11:51:05.084Z,22.97
2023-04-22T11:52:05.081Z,22.96
2023-04-22T11:53:05.081Z,22.96
2023-04-22T11:54:05.046Z,22.96
2023-04-22T11:55:05.055Z,22.96
2023-04-22T11:56:05.047Z,22.97
2023-04-22T11:57:05.083Z,22.97
2023-04-22T11:58:05.024Z,22.96
2023-04-22T11:59:05.034Z,22.96
2023-04-22T12:00:04.993Z,22.96
2023-04-22T12:01:05.008Z,22.97
2023-04-22T12:02:05.040Z,22.97
2023-04-22T12:03:05.117Z,22.97
2023-04-22T12:04:05.113Z,22.97
2023-04-22T12:05:05.022Z,22.96
2023-04-22T12:06:05.024Z,22.96
2023-04-22T12:07:04.973Z,22.97
2023-04-22T12:08:04.942Z,22.97
2023-04-22T12:09:04.960Z,22.96
2023-04-22T12:10:04.985Z,22.96
2023-04-22T12:11:05.016Z,22.96
2023-04-22T12:12:05.007Z,22.96
2023-04-22T12:13:04.919Z,22.96
2023-04-22T12:14:04.940Z,22.96
2023-04-22T12:15:04.918Z,22.95
2023-04-22T12:16:05.658Z,22.95
2023-04-22T12:17:04.967Z,22.94
2023-04-22T12:18:04.942Z,22.94
2023-04-22T12:19:04.945Z,22.95
2023-04-22T12:20:05.011Z,22.94
2023-04-22T12:21:05.149Z,22.94
2023-04-22T12:22:05.144Z,22.93
2023-04-22T12:23:05.225Z,22.94
2023-04-22T12:24:05.292Z,22.94
2023-04-22T12:25:05.310Z,22.93
2023-04-22T12:26:05.423Z,22.93
2023-04-22T12:27:05.497Z,22.93
2023-04-22T12:28:05.512Z,22.93
2023-04-22T12:29:05.590Z,22.93
2023-04-22T12:30:05.656Z,22.93
2023-04-22T12:31:05.765Z,22.92
2023-04-22T12:32:05.806Z,22.92
2023-04-22T12:33:05.811Z,22.92
2023-04-22T12:34:05.909Z,22.92
2023-04-22T12:35:05.969Z,22.91
2023-04-22T12:36:06.059Z,22.92
2023-04-22T12:37:06.121Z,22.91
2023-04-22T12:38:06.163Z,22.92
2023-04-22T12:39:06.242Z,22.92
2023-04-22T12:40:06.309Z,22.90
2023-04-22T12:41:06.394Z,22.90
2023-04-22T12:42:06.484Z,22.90
2023-04-22T12:43:06.479Z,22.90
2023-04-22T12:44:06.542Z,22.90
2023-04-22T12:45:06.602Z,22.90
2023-04-22T12:46:06.762Z,22.90
2023-04-22T12:47:07.162Z,22.89
2023-04-22T12:48:06.777Z,22.90
2023-04-22T12:49:06.843Z,22.89
2023-04-22T12:50:06.899Z,22.89
2023-04-22T12:51:07.152Z,22.89
2023-04-22T12:52:07.049Z,22.89
2023-04-22T12:53:07.120Z,22.89
2023-04-22T12:54:07.135Z,22.88